sensor_id;sensor_type;location;lat;lon;timestamp;pressure;altitude;pressure_sealevel;temperature;humidity
7178;BME280;3630;42.146;24.756;2023-01-16T00:01:34;99593.19;;;7.40;94.36
7178;BME280;3630;42.146;24.756;2023-01-16T00:04:01;99600.00;;;7.40;94.39
7178;BME280;3630;42.146;24.756;2023-01-16T00:06:28;99594.75;;;7.35;94.54
7178;BME280;3630;42.146;24.756;2023-01-16T00:08:55;99589.41;;;7.28;95.14
7178;BME280;3630;42.146;24.756;2023-01-16T00:11:22;99591.53;;;7.14;95.41
7178;BME280;3630;42.146;24.756;2023-01-16T00:13:50;99592.94;;;7.04;96.41
7178;BME280;3630;42.146;24.756;2023-01-16T00:16:18;99587.00;;;7.05;96.69
7178;BME280;3630;42.146;24.756;2023-01-16T00:18:46;99583.34;;;6.97;96.55
7178;BME280;3630;42.146;24.756;2023-01-16T00:21:14;99583.03;;;6.88;97.80
7178;BME280;3630;42.146;24.756;2023-01-16T00:23:41;99572.53;;;6.79;98.40
7178;BME280;3630;42.146;24.756;2023-01-16T00:26:08;99570.22;;;6.87;97.88
7178;BME280;3630;42.146;24.756;2023-01-16T00:28:37;99575.38;;;6.88;97.53
7178;BME280;3630;42.146;24.756;2023-01-16T00:31:05;99570.31;;;6.90;97.73
7178;BME280;3630;42.146;24.756;2023-01-16T00:33:32;99574.59;;;6.89;97.74
7178;BME280;3630;42.146;24.756;2023-01-16T00:35:59;99571.97;;;6.88;97.75
7178;BME280;3630;42.146;24.756;2023-01-16T00:38:26;99588.09;;;6.87;97.61
7178;BME280;3630;42.146;24.756;2023-01-16T00:40:53;99573.47;;;6.56;98.32
7178;BME280;3630;42.146;24.756;2023-01-16T00:43:20;99578.69;;;6.59;99.26
7178;BME280;3630;42.146;24.756;2023-01-16T00:45:47;99575.47;;;6.39;99.26
7178;BME280;3630;42.146;24.756;2023-01-16T00:48:15;99573.03;;;6.42;100.00
7178;BME280;3630;42.146;24.756;2023-01-16T00:50:42;99566.72;;;6.33;100.00
7178;BME280;3630;42.146;24.756;2023-01-16T00:53:09;99563.19;;;6.29;100.00
7178;BME280;3630;42.146;24.756;2023-01-16T00:55:36;99561.16;;;6.19;100.00
7178;BME280;3630;42.146;24.756;2023-01-16T00:58:03;99556.69;;;6.12;100.00
7178;BME280;3630;42.146;24.756;2023-01-16T01:00:30;99562.47;;;6.08;100.00
7178;BME280;3630;42.146;24.756;2023-01-16T01:02:58;99541.69;;;5.98;100.00
7178;BME280;3630;42.146;24.756;2023-01-16T01:05:26;99557.31;;;6.07;100.00
7178;BME280;3630;42.146;24.756;2023-01-16T01:07:53;99560.91;;;6.12;100.00
7178;BME280;3630;42.146;24.756;2023-01-16T01:10:20;99561.00;;;6.15;100.00
7178;BME280;3630;42.146;24.756;2023-01-16T01:12:46;99564.47;;;6.17;100.00
7178;BME280;3630;42.146;24.756;2023-01-16T01:15:13;99558.63;;;6.21;100.00
7178;BME280;3630;42.146;24.756;2023-01-16T01:17:40;99557.25;;;6.29;100.00
7178;BME280;3630;42.146;24.756;2023-01-16T01:20:08;99559.88;;;6.32;100.00
7178;BME280;3630;42.146;24.756;2023-01-16T01:22:36;99558.56;;;6.43;100.00
7178;BME280;3630;42.146;24.756;2023-01-16T01:25:03;99549.22;;;6.43;100.00
7178;BME280;3630;42.146;24.756;2023-01-16T01:27:30;99549.78;;;6.35;100.00
7178;BME280;3630;42.146;24.756;2023-01-16T01:29:57;99545.41;;;6.31;100.00
7178;BME280;3630;42.146;24.756;2023-01-16T01:32:24;99551.09;;;6.24;100.00
7178;BME280;3630;42.146;24.756;2023-01-16T01:34:51;99544.53;;;6.30;100.00
7178;BME280;3630;42.146;24.756;2023-01-16T01:37:18;99545.09;;;6.22;100.00
7178;BME280;3630;42.146;24.756;2023-01-16T01:39:46;99539.38;;;6.29;100.00
7178;BME280;3630;42.146;24.756;2023-01-16T01:42:12;99537.97;;;6.37;100.00
7178;BME280;3630;42.146;24.756;2023-01-16T01:45:00;99534.63;;;6.39;100.00
7178;BME280;3630;42.146;24.756;2023-01-16T01:47:31;99433.78;;;5.75;100.00
7178;BME280;3630;42.146;24.756;2023-01-16T01:50:03;99536.91;;;6.32;99.64
7178;BME280;3630;42.146;24.756;2023-01-16T01:52:32;99534.63;;;6.39;99.94
7178;BME280;3630;42.146;24.756;2023-01-16T01:55:03;99507.28;;;6.35;100.00
7178;BME280;3630;42.146;24.756;2023-01-16T01:57:34;99535.13;;;6.54;99.40
7178;BME280;3630;42.146;24.756;2023-01-16T02:00:06;99527.56;;;6.58;99.29
7178;BME280;3630;42.146;24.756;2023-01-16T02:02:37;99525.16;;;6.62;99.27
7178;BME280;3630;42.146;24.756;2023-01-16T02:05:08;99526.81;;;6.60;99.16
7178;BME280;3630;42.146;24.756;2023-01-16T02:07:38;99522.53;;;6.59;99.09
7178;BME280;3630;42.146;24.756;2023-01-16T02:10:11;99530.34;;;6.64;98.47
7178;BME280;3630;42.146;24.756;2023-01-16T02:12:41;99516.78;;;6.66;98.81
7178;BME280;3630;42.146;24.756;2023-01-16T02:15:08;99524.59;;;6.71;98.60
7178;BME280;3630;42.146;24.756;2023-01-16T02:17:43;99527.09;;;6.69;97.82
7178;BME280;3630;42.146;24.756;2023-01-16T02:20:28;99522.97;;;6.73;97.98
7178;BME280;3630;42.146;24.756;2023-01-16T02:26:37;99517.94;;;6.76;97.02
7178;BME280;3630;42.146;24.756;2023-01-16T02:29:21;99515.25;;;6.71;97.38
7178;BME280;3630;42.146;24.756;2023-01-16T02:32:03;99498.22;;;6.70;97.09
7178;BME280;3630;42.146;24.756;2023-01-16T02:34:51;99517.19;;;6.78;96.94
7178;BME280;3630;42.146;24.756;2023-01-16T02:37:28;99519.78;;;6.80;97.26
7178;BME280;3630;42.146;24.756;2023-01-16T02:40:12;99511.31;;;6.81;97.09
7178;BME280;3630;42.146;24.756;2023-01-16T02:42:45;99522.31;;;6.78;97.37
7178;BME280;3630;42.146;24.756;2023-01-16T02:45:25;99523.09;;;6.77;97.49
7178;BME280;3630;42.146;24.756;2023-01-16T02:48:01;99527.25;;;6.74;97.34
7178;BME280;3630;42.146;24.756;2023-01-16T02:50:38;99516.53;;;6.84;98.20
7178;BME280;3630;42.146;24.756;2023-01-16T02:53:11;99534.75;;;6.96;96.84
7178;BME280;3630;42.146;24.756;2023-01-16T02:55:45;99530.72;;;7.02;96.06
7178;BME280;3630;42.146;24.756;2023-01-16T02:58:14;99520.50;;;7.02;95.74
7178;BME280;3630;42.146;24.756;2023-01-16T03:00:49;99520.72;;;7.10;95.27
7178;BME280;3630;42.146;24.756;2023-01-16T03:03:34;99525.03;;;7.11;95.13
7178;BME280;3630;42.146;24.756;2023-01-16T03:06:10;99516.44;;;7.09;94.84
7178;BME280;3630;42.146;24.756;2023-01-16T03:08:46;99509.59;;;7.08;94.97
7178;BME280;3630;42.146;24.756;2023-01-16T03:11:19;99513.88;;;7.09;94.68
7178;BME280;3630;42.146;24.756;2023-01-16T03:14:17;99502.94;;;7.13;94.99
7178;BME280;3630;42.146;24.756;2023-01-16T03:16:54;99495.28;;;7.13;95.18
7178;BME280;3630;42.146;24.756;2023-01-16T03:19:39;99487.59;;;7.13;94.55
7178;BME280;3630;42.146;24.756;2023-01-16T03:22:12;99485.75;;;7.07;94.82
7178;BME280;3630;42.146;24.756;2023-01-16T03:24:49;99482.28;;;7.05;95.42
7178;BME280;3630;42.146;24.756;2023-01-16T03:27:29;99506.50;;;7.18;95.20
7178;BME280;3630;42.146;24.756;2023-01-16T03:30:08;99482.31;;;7.07;95.16
7178;BME280;3630;42.146;24.756;2023-01-16T03:32:41;99478.56;;;6.96;95.09
7178;BME280;3630;42.146;24.756;2023-01-16T03:35:14;99472.56;;;6.94;95.52
7178;BME280;3630;42.146;24.756;2023-01-16T03:37:47;99481.31;;;7.02;95.42
7178;BME280;3630;42.146;24.756;2023-01-16T03:40:20;99475.31;;;7.00;95.58
7178;BME280;3630;42.146;24.756;2023-01-16T03:42:52;99475.53;;;7.07;95.82
7178;BME280;3630;42.146;24.756;2023-01-16T03:45:23;99462.78;;;7.09;95.57
7178;BME280;3630;42.146;24.756;2023-01-16T03:47:56;99463.72;;;7.11;95.12
7178;BME280;3630;42.146;24.756;2023-01-16T03:50:27;99462.06;;;7.13;95.30
7178;BME280;3630;42.146;24.756;2023-01-16T03:52:58;99465.31;;;7.07;95.27
7178;BME280;3630;42.146;24.756;2023-01-16T03:55:30;99467.56;;;6.98;95.26
7178;BME280;3630;42.146;24.756;2023-01-16T03:58:02;99453.31;;;6.77;95.46
7178;BME280;3630;42.146;24.756;2023-01-16T04:00:37;99461.69;;;6.73;96.76
7178;BME280;3630;42.146;24.756;2023-01-16T04:03:08;99459.84;;;6.69;97.53
7178;BME280;3630;42.146;24.756;2023-01-16T04:05:44;99462.59;;;6.75;97.70
7178;BME280;3630;42.146;24.756;2023-01-16T04:08:33;99462.94;;;6.85;97.98
7178;BME280;3630;42.146;24.756;2023-01-16T04:11:01;99457.22;;;6.94;97.23
7178;BME280;3630;42.146;24.756;2023-01-16T04:13:32;99446.38;;;7.01;96.93
7178;BME280;3630;42.146;24.756;2023-01-16T04:16:01;99445.59;;;7.03;96.04
7178;BME280;3630;42.146;24.756;2023-01-16T04:18:31;99444.06;;;7.08;95.74
7178;BME280;3630;42.146;24.756;2023-01-16T04:21:03;99432.09;;;7.07;96.13
7178;BME280;3630;42.146;24.756;2023-01-16T04:23:30;99428.78;;;7.11;95.22
7178;BME280;3630;42.146;24.756;2023-01-16T04:25:56;99423.84;;;7.18;95.11
7178;BME280;3630;42.146;24.756;2023-01-16T04:28:23;99422.09;;;7.15;94.73
7178;BME280;3630;42.146;24.756;2023-01-16T04:30:50;99421.28;;;7.16;94.97
7178;BME280;3630;42.146;24.756;2023-01-16T04:33:17;99421.28;;;7.16;94.71
7178;BME280;3630;42.146;24.756;2023-01-16T04:35:43;99413.47;;;7.11;94.67
7178;BME280;3630;42.146;24.756;2023-01-16T04:38:12;99415.25;;;7.14;94.94
7178;BME280;3630;42.146;24.756;2023-01-16T04:40:39;99419.63;;;7.18;94.23
7178;BME280;3630;42.146;24.756;2023-01-16T04:43:06;99411.09;;;7.18;94.44
7178;BME280;3630;42.146;24.756;2023-01-16T04:45:32;99413.72;;;7.21;94.31
7178;BME280;3630;42.146;24.756;2023-01-16T04:47:59;99413.69;;;7.19;94.94
7178;BME280;3630;42.146;24.756;2023-01-16T04:50:26;99400.78;;;7.14;95.00
7178;BME280;3630;42.146;24.756;2023-01-16T04:52:53;99418.16;;;7.26;95.13
7178;BME280;3630;42.146;24.756;2023-01-16T04:55:21;99413.53;;;7.13;94.74
7178;BME280;3630;42.146;24.756;2023-01-16T04:57:47;99331.81;;;6.55;95.43
7178;BME280;3630;42.146;24.756;2023-01-16T05:00:15;99376.28;;;6.91;95.78
7178;BME280;3630;42.146;24.756;2023-01-16T05:02:42;99413.63;;;7.16;94.61
7178;BME280;3630;42.146;24.756;2023-01-16T05:05:09;99411.06;;;7.16;94.29
7178;BME280;3630;42.146;24.756;2023-01-16T05:07:36;99409.53;;;7.23;94.16
7178;BME280;3630;42.146;24.756;2023-01-16T05:10:03;99410.38;;;7.22;93.85
7178;BME280;3630;42.146;24.756;2023-01-16T05:12:31;99407.75;;;7.20;93.94
7178;BME280;3630;42.146;24.756;2023-01-16T05:14:58;99415.47;;;7.22;94.33
7178;BME280;3630;42.146;24.756;2023-01-16T05:17:25;99412.84;;;7.19;94.07
7178;BME280;3630;42.146;24.756;2023-01-16T05:19:52;99415.38;;;7.19;94.11
7178;BME280;3630;42.146;24.756;2023-01-16T05:22:19;99417.19;;;7.23;94.09
7178;BME280;3630;42.146;24.756;2023-01-16T05:24:45;99412.22;;;7.27;93.94
7178;BME280;3630;42.146;24.756;2023-01-16T05:27:12;99413.13;;;7.29;94.21
7178;BME280;3630;42.146;24.756;2023-01-16T05:29:40;99400.25;;;7.26;94.55
7178;BME280;3630;42.146;24.756;2023-01-16T05:32:07;99401.34;;;7.34;94.95
7178;BME280;3630;42.146;24.756;2023-01-16T05:34:34;99392.00;;;7.36;94.44
7178;BME280;3630;42.146;24.756;2023-01-16T05:37:01;99392.06;;;7.38;94.44
7178;BME280;3630;42.146;24.756;2023-01-16T05:39:27;99388.56;;;7.34;94.20
7178;BME280;3630;42.146;24.756;2023-01-16T05:41:54;99382.03;;;7.44;94.45
7178;BME280;3630;42.146;24.756;2023-01-16T05:44:21;99377.78;;;7.44;94.06
7178;BME280;3630;42.146;24.756;2023-01-16T05:46:49;99370.06;;;7.43;93.63
7178;BME280;3630;42.146;24.756;2023-01-16T05:49:16;99379.38;;;7.41;93.33
7178;BME280;3630;42.146;24.756;2023-01-16T05:51:43;99382.03;;;7.44;93.46
7178;BME280;3630;42.146;24.756;2023-01-16T05:54:11;99380.28;;;7.43;93.69
7178;BME280;3630;42.146;24.756;2023-01-16T05:56:38;99394.03;;;7.48;93.75
7178;BME280;3630;42.146;24.756;2023-01-16T05:59:05;99390.75;;;7.52;93.51
7178;BME280;3630;42.146;24.756;2023-01-16T06:01:32;99377.00;;;7.47;93.30
7178;BME280;3630;42.146;24.756;2023-01-16T06:04:00;99382.22;;;7.51;93.13
7178;BME280;3630;42.146;24.756;2023-01-16T06:06:27;99382.81;;;7.43;92.87
7178;BME280;3630;42.146;24.756;2023-01-16T06:08:54;99378.94;;;7.26;93.79
7178;BME280;3630;42.146;24.756;2023-01-16T06:11:20;99379.63;;;7.19;93.89
7178;BME280;3630;42.146;24.756;2023-01-16T06:13:47;99378.06;;;7.25;94.64
7178;BME280;3630;42.146;24.756;2023-01-16T06:16:14;99384.03;;;7.24;94.40
7178;BME280;3630;42.146;24.756;2023-01-16T06:18:41;99383.34;;;7.30;93.91
7178;BME280;3630;42.146;24.756;2023-01-16T06:21:09;99383.34;;;7.31;93.66
7178;BME280;3630;42.146;24.756;2023-01-16T06:23:36;99386.84;;;7.33;93.05
7178;BME280;3630;42.146;24.756;2023-01-16T06:26:03;99380.16;;;7.38;93.20
7178;BME280;3630;42.146;24.756;2023-01-16T06:28:31;99376.81;;;7.41;93.31
7178;BME280;3630;42.146;24.756;2023-01-16T06:30:58;99377.59;;;7.38;92.84
7178;BME280;3630;42.146;24.756;2023-01-16T06:33:25;99370.81;;;7.39;93.04
7178;BME280;3630;42.146;24.756;2023-01-16T06:35:52;99356.19;;;7.33;93.01
7178;BME280;3630;42.146;24.756;2023-01-16T06:38:20;99380.81;;;7.31;92.32
7178;BME280;3630;42.146;24.756;2023-01-16T06:40:47;99378.41;;;7.36;91.10
7178;BME280;3630;42.146;24.756;2023-01-16T06:43:14;99375.06;;;7.40;90.74
7178;BME280;3630;42.146;24.756;2023-01-16T06:45:42;99377.78;;;7.44;90.08
7178;BME280;3630;42.146;24.756;2023-01-16T06:48:10;99372.59;;;7.43;90.56
7178;BME280;3630;42.146;24.756;2023-01-16T06:50:37;99366.91;;;7.53;90.30
7178;BME280;3630;42.146;24.756;2023-01-16T06:53:04;99370.94;;;7.43;88.14
7178;BME280;3630;42.146;24.756;2023-01-16T06:55:32;99364.16;;;7.45;88.39
7178;BME280;3630;42.146;24.756;2023-01-16T06:57:59;99368.91;;;7.32;87.23
7178;BME280;3630;42.146;24.756;2023-01-16T07:00:26;99363.84;;;7.33;88.01
7178;BME280;3630;42.146;24.756;2023-01-16T07:02:54;99363.41;;;7.49;88.34
7178;BME280;3630;42.146;24.756;2023-01-16T07:05:22;99360.25;;;7.58;87.67
7178;BME280;3630;42.146;24.756;2023-01-16T07:07:49;99361.94;;;7.57;87.22
7178;BME280;3630;42.146;24.756;2023-01-16T07:10:17;99355.50;;;7.40;87.43
7178;BME280;3630;42.146;24.756;2023-01-16T07:12:47;99343.63;;;7.42;88.30
7178;BME280;3630;42.146;24.756;2023-01-16T07:15:13;99337.94;;;7.52;88.35
7178;BME280;3630;42.146;24.756;2023-01-16T07:17:58;99332.78;;;7.51;87.36
7178;BME280;3630;42.146;24.756;2023-01-16T07:20:43;99339.28;;;7.40;87.73
7178;BME280;3630;42.146;24.756;2023-01-16T07:23:33;99323.34;;;7.50;88.12
7178;BME280;3630;42.146;24.756;2023-01-16T07:26:03;99318.31;;;7.51;87.83
7178;BME280;3630;42.146;24.756;2023-01-16T07:28:33;99311.38;;;7.47;87.47
7178;BME280;3630;42.146;24.756;2023-01-16T07:31:00;99306.22;;;7.46;87.81
7178;BME280;3630;42.146;24.756;2023-01-16T07:33:28;99300.41;;;7.51;87.62
7178;BME280;3630;42.146;24.756;2023-01-16T07:35:55;99301.38;;;7.56;87.34
7178;BME280;3630;42.146;24.756;2023-01-16T07:38:22;99309.13;;;7.58;87.35
7178;BME280;3630;42.146;24.756;2023-01-16T07:40:49;99310.97;;;7.65;87.16
7178;BME280;3630;42.146;24.756;2023-01-16T07:43:17;99308.59;;;7.71;86.05
7178;BME280;3630;42.146;24.756;2023-01-16T07:45:45;99303.50;;;7.72;85.61
7178;BME280;3630;42.146;24.756;2023-01-16T07:48:17;99302.91;;;7.83;85.72
7178;BME280;3630;42.146;24.756;2023-01-16T07:50:49;99294.03;;;7.68;85.90
7178;BME280;3630;42.146;24.756;2023-01-16T07:53:16;99294.06;;;7.70;86.64
7178;BME280;3630;42.146;24.756;2023-01-16T07:55:47;99288.06;;;7.69;86.63
7178;BME280;3630;42.146;24.756;2023-01-16T07:58:14;99284.00;;;7.78;86.00
7178;BME280;3630;42.146;24.756;2023-01-16T08:00:40;99280.72;;;7.83;85.52
7178;BME280;3630;42.146;24.756;2023-01-16T08:03:09;99279.66;;;7.73;85.15
7178;BME280;3630;42.146;24.756;2023-01-16T08:05:36;99283.34;;;7.85;85.22
7178;BME280;3630;42.146;24.756;2023-01-16T08:08:03;99294.56;;;7.91;85.06
7178;BME280;3630;42.146;24.756;2023-01-16T08:10:30;99296.19;;;7.88;85.66
7178;BME280;3630;42.146;24.756;2023-01-16T08:12:57;99302.50;;;8.02;86.21
7178;BME280;3630;42.146;24.756;2023-01-16T08:15:24;99322.25;;;8.07;84.79
7178;BME280;3630;42.146;24.756;2023-01-16T08:17:50;99336.16;;;8.18;83.84
7178;BME280;3630;42.146;24.756;2023-01-16T08:20:19;99341.56;;;8.30;83.10
7178;BME280;3630;42.146;24.756;2023-01-16T08:22:46;99340.91;;;8.39;82.60
7178;BME280;3630;42.146;24.756;2023-01-16T08:25:16;99335.88;;;8.42;82.06
7178;BME280;3630;42.146;24.756;2023-01-16T08:27:43;99335.09;;;8.46;82.02
7178;BME280;3630;42.146;24.756;2023-01-16T08:30:11;99329.78;;;8.03;82.85
7178;BME280;3630;42.146;24.756;2023-01-16T08:32:38;99315.38;;;7.70;83.50
7178;BME280;3630;42.146;24.756;2023-01-16T08:35:07;99318.38;;;7.54;84.48
7178;BME280;3630;42.146;24.756;2023-01-16T08:37:35;99311.34;;;7.46;85.95
7178;BME280;3630;42.146;24.756;2023-01-16T08:40:03;99313.03;;;7.12;86.47
7178;BME280;3630;42.146;24.756;2023-01-16T08:42:31;99313.69;;;7.05;88.03
7178;BME280;3630;42.146;24.756;2023-01-16T08:45:15;99310.44;;;7.11;87.79
7178;BME280;3630;42.146;24.756;2023-01-16T08:48:02;99315.78;;;7.20;88.64
7178;BME280;3630;42.146;24.756;2023-01-16T08:50:47;99315.47;;;7.41;87.11
7178;BME280;3630;42.146;24.756;2023-01-16T08:53:33;99312.88;;;7.39;86.55
7178;BME280;3630;42.146;24.756;2023-01-16T08:55:59;99296.63;;;7.36;86.21
7178;BME280;3630;42.146;24.756;2023-01-16T08:58:26;99285.69;;;7.41;86.30
7178;BME280;3630;42.146;24.756;2023-01-16T09:00:53;99285.22;;;7.57;85.77
7178;BME280;3630;42.146;24.756;2023-01-16T09:03:20;99283.09;;;7.74;84.76
7178;BME280;3630;42.146;24.756;2023-01-16T09:05:46;99279.06;;;7.49;84.00
7178;BME280;3630;42.146;24.756;2023-01-16T09:08:13;99289.47;;;7.57;84.69
7178;BME280;3630;42.146;24.756;2023-01-16T09:10:41;99281.41;;;7.75;84.48
7178;BME280;3630;42.146;24.756;2023-01-16T09:13:28;99292.16;;;7.97;83.96
7178;BME280;3630;42.146;24.756;2023-01-16T09:16:12;99281.25;;;8.04;83.12
7178;BME280;3630;42.146;24.756;2023-01-16T09:18:39;99288.25;;;8.13;82.90
7178;BME280;3630;42.146;24.756;2023-01-16T09:21:06;99283.88;;;8.09;81.76
7178;BME280;3630;42.146;24.756;2023-01-16T09:23:33;99260.00;;;7.71;82.77
7178;BME280;3630;42.146;24.756;2023-01-16T09:26:01;99260.88;;;7.71;83.41
7178;BME280;3630;42.146;24.756;2023-01-16T09:28:28;99254.25;;;7.80;83.32
7178;BME280;3630;42.146;24.756;2023-01-16T09:30:54;99257.03;;;7.90;83.32
7178;BME280;3630;42.146;24.756;2023-01-16T09:33:21;99260.25;;;7.83;83.49
7178;BME280;3630;42.146;24.756;2023-01-16T09:35:48;99252.31;;;7.35;85.46
7178;BME280;3630;42.146;24.756;2023-01-16T09:38:15;99241.19;;;7.33;85.87
7178;BME280;3630;42.146;24.756;2023-01-16T09:40:43;99195.94;;;7.29;86.01
7178;BME280;3630;42.146;24.756;2023-01-16T09:46:10;99229.09;;;7.62;86.33
7178;BME280;3630;42.146;24.756;2023-01-16T09:48:45;99221.47;;;7.63;86.38
7178;BME280;3630;42.146;24.756;2023-01-16T09:51:16;99213.25;;;7.77;86.17
7178;BME280;3630;42.146;24.756;2023-01-16T09:53:49;99206.69;;;7.88;85.70
7178;BME280;3630;42.146;24.756;2023-01-16T09:56:38;99197.84;;;7.73;85.74
7178;BME280;3630;42.146;24.756;2023-01-16T09:59:29;99200.47;;;7.77;86.93
7178;BME280;3630;42.146;24.756;2023-01-16T10:02:05;99201.72;;;7.94;85.29
7178;BME280;3630;42.146;24.756;2023-01-16T10:04:34;99195.78;;;7.96;84.81
7178;BME280;3630;42.146;24.756;2023-01-16T10:07:31;99196.59;;;7.95;84.00
7178;BME280;3630;42.146;24.756;2023-01-16T10:10:14;99198.72;;;8.13;83.74
7178;BME280;3630;42.146;24.756;2023-01-16T10:12:52;99189.63;;;8.27;83.35
7178;BME280;3630;42.146;24.756;2023-01-16T10:15:25;99181.00;;;8.23;83.23
7178;BME280;3630;42.146;24.756;2023-01-16T10:18:03;99177.84;;;8.35;83.04
7178;BME280;3630;42.146;24.756;2023-01-16T10:20:46;99185.81;;;8.49;82.62
7178;BME280;3630;42.146;24.756;2023-01-16T10:23:37;99179.84;;;8.48;82.45
7178;BME280;3630;42.146;24.756;2023-01-16T10:26:08;99182.22;;;8.39;82.65
7178;BME280;3630;42.146;24.756;2023-01-16T10:28:52;99171.16;;;8.42;82.56
7178;BME280;3630;42.146;24.756;2023-01-16T10:31:26;99169.09;;;8.25;82.38
7178;BME280;3630;42.146;24.756;2023-01-16T10:33:58;99163.78;;;7.75;84.46
7178;BME280;3630;42.146;24.756;2023-01-16T10:36:30;99142.75;;;7.88;85.15
7178;BME280;3630;42.146;24.756;2023-01-16T10:38:59;99153.41;;;8.09;84.70
7178;BME280;3630;42.146;24.756;2023-01-16T10:41:29;99150.03;;;8.10;84.57
7178;BME280;3630;42.146;24.756;2023-01-16T10:44:27;99107.91;;;7.94;84.34
7178;BME280;3630;42.146;24.756;2023-01-16T10:47:16;99146.06;;;8.24;84.23
7178;BME280;3630;42.146;24.756;2023-01-16T10:50:00;99139.97;;;8.19;83.56
7178;BME280;3630;42.146;24.756;2023-01-16T10:52:27;99131.38;;;8.15;83.37
7178;BME280;3630;42.146;24.756;2023-01-16T10:54:56;99106.53;;;8.10;83.33
7178;BME280;3630;42.146;24.756;2023-01-16T10:57:24;99109.09;;;8.10;83.89
7178;BME280;3630;42.146;24.756;2023-01-16T10:59:55;99112.69;;;8.19;83.98
7178;BME280;3630;42.146;24.756;2023-01-16T11:02:30;99113.84;;;8.34;82.95
7178;BME280;3630;42.146;24.756;2023-01-16T11:04:57;99109.47;;;8.28;82.98
7178;BME280;3630;42.146;24.756;2023-01-16T11:07:27;99100.06;;;8.27;82.88
7178;BME280;3630;42.146;24.756;2023-01-16T11:09:55;99101.78;;;8.28;82.73
7178;BME280;3630;42.146;24.756;2023-01-16T11:12:24;99078.59;;;8.22;82.20
7178;BME280;3630;42.146;24.756;2023-01-16T11:15:15;99073.34;;;8.14;82.57
7178;BME280;3630;42.146;24.756;2023-01-16T11:18:01;99079.97;;;8.05;83.42
7178;BME280;3630;42.146;24.756;2023-01-16T11:20:45;99077.47;;;8.08;84.02
7178;BME280;3630;42.146;24.756;2023-01-16T11:23:18;99078.28;;;8.04;84.39
7178;BME280;3630;42.146;24.756;2023-01-16T11:25:46;99062.00;;;8.00;84.44
7178;BME280;3630;42.146;24.756;2023-01-16T11:28:18;99086.28;;;8.22;84.46
7178;BME280;3630;42.146;24.756;2023-01-16T11:30:47;99083.72;;;8.20;83.95
7178;BME280;3630;42.146;24.756;2023-01-16T11:33:19;99076.97;;;8.25;83.21
7178;BME280;3630;42.146;24.756;2023-01-16T11:35:51;99081.56;;;8.40;82.70
7178;BME280;3630;42.146;24.756;2023-01-16T11:38:21;99066.91;;;8.33;82.21
7178;BME280;3630;42.146;24.756;2023-01-16T11:40:49;99072.06;;;8.35;82.63
7178;BME280;3630;42.146;24.756;2023-01-16T11:43:21;99065.81;;;8.22;82.74
7178;BME280;3630;42.146;24.756;2023-01-16T11:46:20;99065.88;;;8.25;83.09
7178;BME280;3630;42.146;24.756;2023-01-16T11:48:53;99064.09;;;8.21;83.31
7178;BME280;3630;42.146;24.756;2023-01-16T11:51:24;99065.00;;;8.23;82.84
7178;BME280;3630;42.146;24.756;2023-01-16T11:53:54;99061.84;;;8.36;83.01
7178;BME280;3630;42.146;24.756;2023-01-16T11:56:41;99068.78;;;8.42;82.80
7178;BME280;3630;42.146;24.756;2023-01-16T11:59:22;99067.97;;;8.44;82.52
7178;BME280;3630;42.146;24.756;2023-01-16T12:01:58;99060.16;;;8.38;82.52
7178;BME280;3630;42.146;24.756;2023-01-16T12:04:50;99036.41;;;7.99;83.95
7178;BME280;3630;42.146;24.756;2023-01-16T12:07:44;99044.66;;;8.29;83.43
7178;BME280;3630;42.146;24.756;2023-01-16T12:10:23;99043.97;;;8.38;83.19
7178;BME280;3630;42.146;24.756;2023-01-16T12:12:58;99049.31;;;8.51;83.13
7178;BME280;3630;42.146;24.756;2023-01-16T12:15:53;99021.81;;;8.41;82.14
7178;BME280;3630;42.146;24.756;2023-01-16T12:18:31;99034.69;;;8.44;82.40
7178;BME280;3630;42.146;24.756;2023-01-16T12:21:03;99024.22;;;8.30;82.30
7178;BME280;3630;42.146;24.756;2023-01-16T12:23:46;99009.50;;;8.22;83.04
7178;BME280;3630;42.146;24.756;2023-01-16T12:26:20;99016.06;;;8.08;83.49
7178;BME280;3630;42.146;24.756;2023-01-16T12:28:57;99016.25;;;8.17;83.69
7178;BME280;3630;42.146;24.756;2023-01-16T12:31:38;99014.03;;;8.34;83.33
7178;BME280;3630;42.146;24.756;2023-01-16T12:34:25;99004.66;;;8.34;82.40
7178;BME280;3630;42.146;24.756;2023-01-16T12:37:10;98997.75;;;8.30;82.47
7178;BME280;3630;42.146;24.756;2023-01-16T12:39:45;98991.59;;;8.22;82.27
7178;BME280;3630;42.146;24.756;2023-01-16T12:42:25;99004.38;;;8.20;82.11
7178;BME280;3630;42.146;24.756;2023-01-16T12:45:21;99011.41;;;8.29;82.45
7178;BME280;3630;42.146;24.756;2023-01-16T12:48:00;99009.84;;;8.37;81.66
7178;BME280;3630;42.146;24.756;2023-01-16T12:50:36;99011.63;;;8.43;81.17
7178;BME280;3630;42.146;24.756;2023-01-16T12:53:21;99015.81;;;8.39;81.25
7178;BME280;3630;42.146;24.756;2023-01-16T12:55:55;99024.44;;;8.44;81.34
7178;BME280;3630;42.146;24.756;2023-01-16T12:58:27;99012.44;;;8.40;81.20
7178;BME280;3630;42.146;24.756;2023-01-16T13:01:06;98998.72;;;8.37;81.15
7178;BME280;3630;42.146;24.756;2023-01-16T13:03:39;99000.84;;;8.14;81.79
7178;BME280;3630;42.146;24.756;2023-01-16T13:06:12;99000.97;;;8.20;81.65
7178;BME280;3630;42.146;24.756;2023-01-16T13:08:44;98981.25;;;8.16;81.28
7178;BME280;3630;42.146;24.756;2023-01-16T13:11:22;98991.75;;;8.28;81.20
7178;BME280;3630;42.146;24.756;2023-01-16T13:14:10;98993.53;;;8.32;81.15
7178;BME280;3630;42.146;24.756;2023-01-16T13:16:40;98991.06;;;8.38;80.92
7178;BME280;3630;42.146;24.756;2023-01-16T13:19:14;98991.16;;;8.43;80.64
7178;BME280;3630;42.146;24.756;2023-01-16T13:21:50;98984.34;;;8.43;80.46
7178;BME280;3630;42.146;24.756;2023-01-16T13:24:23;98978.22;;;8.35;80.91
7178;BME280;3630;42.146;24.756;2023-01-16T13:26:58;98984.28;;;8.40;80.97
7178;BME280;3630;42.146;24.756;2023-01-16T13:29:31;98975.00;;;8.47;80.76
7178;BME280;3630;42.146;24.756;2023-01-16T13:32:04;98972.47;;;8.48;80.79
7178;BME280;3630;42.146;24.756;2023-01-16T13:34:35;98972.38;;;8.44;80.92
7178;BME280;3630;42.146;24.756;2023-01-16T13:37:38;98967.44;;;8.54;80.98
7178;BME280;3630;42.146;24.756;2023-01-16T13:40:28;98968.28;;;8.53;80.39
7178;BME280;3630;42.146;24.756;2023-01-16T13:43:02;98959.78;;;8.56;80.90
7178;BME280;3630;42.146;24.756;2023-01-16T13:45:44;98952.75;;;8.44;80.39
7178;BME280;3630;42.146;24.756;2023-01-16T13:48:16;98945.09;;;8.44;80.54
7178;BME280;3630;42.146;24.756;2023-01-16T13:50:50;98934.94;;;8.49;80.91
7178;BME280;3630;42.146;24.756;2023-01-16T13:53:18;98938.28;;;8.43;81.29